Viking Sea — LAWP7 — position and weather

sailwx.info

Track history (hours):
 
Tides and Currents Weather Stations Pressure Air Temp Water Temp Dewpoint Dewpoint Depression Visibility Wind Speed Wind Dir Waves Ship Positions

Viking Sea

Last reported at 2020-Jan-24 00:20 UTC. Time now 2020-Jan-24 01:24 UTC.
Position N 18°08' W 064°34'.

Length 228 m; draft 6.7 m.

Type: Ship. MMSI: 258215000.

Date/timePositionNaut miles runAvg speedWind from/ knotsBaromVisibWave heightAir tempDewpointWater temp
2020-Jan-24 00:20N 18°08' W 064°34'1011.4
2020-Jan-23 23:30N 18°11' W 064°43'15 9.8
2020-Jan-23 22:00N 18°20' W 064°56'0 0.0
2020-Jan-23 16:25N 18°20' W 064°56'0 0.0
2020-Jan-23 15:25N 18°20' W 064°56'0 0.1
2020-Jan-23 11:00N 18°20' W 064°56'8 7.8
2020-Jan-23 10:00N 18°18' W 065°04'61 1.6
2020-Jan-21 20:04N 18°28' W 066°07'0 0.0
2020-Jan-21 12:58N 18°28' W 066°07'0 0.0
2020-Jan-21 11:28N 18°28' W 066°07'0 0.0
2020-Jan-21 10:28N 18°28' W 066°07'0 0.0
2020-Jan-21 07:28N 18°28' W 066°07'0 0.0
2020-Jan-21 06:58N 18°28' W 066°07'17 5.7
2020-Jan-21 03:57N 18°40' W 065°54'612.9
2020-Jan-21 03:30N 18°39' W 065°48'612.3
2020-Jan-21 03:00N 18°38' W 065°42'1912.6
2020-Jan-21 01:30N 18°36' W 065°22'612.1
2020-Jan-21 01:00N 18°35' W 065°16'24 6.1
2020-Jan-20 20:59N 18°20' W 064°55'0 0.0
2020-Jan-20 18:29N 18°20' W 064°55'0 0.0
2020-Jan-20 16:59N 18°20' W 064°55'0 0.0
2020-Jan-20 14:59N 18°20' W 064°55'0 0.0
2020-Jan-20 13:29N 18°20' W 064°55'0 0.0
2020-Jan-20 11:59N 18°20' W 064°55'0 0.0
2020-Jan-20 10:59N 18°20' W 064°55'5 3.1
2020-Jan-20 09:30N 18°16' W 064°54'511.0
2020-Jan-20 09:00N 18°11' W 064°51'  
2020-Jan-14 16:48N 16°55' W 062°34'23 8.9
2020-Jan-14 14:13N 17°16' W 062°44'2 0.7
2020-Jan-14 11:52N 17°16' W 062°46'1 1.5
2020-Jan-14 11:27N 17°16' W 062°46'1 1.7
2020-Jan-14 10:38N 17°17' W 062°47'5 7.6
2020-Jan-14 10:00N 17°19' W 062°52'19 6.9
2020-Jan-14 07:15N 17°31' W 063°07'9 7.1
2020-Jan-14 06:00N 17°39' W 063°11'4 7.0
2020-Jan-14 05:27N 17°42' W 063°14'30 6.6
2020-Jan-14 00:53N 17°57' W 063°41'  
Track history (hours):
 
Tides and Currents Weather Stations Pressure Air Temp Water Temp Dewpoint Dewpoint Depression Visibility Wind Speed Wind Dir Waves Ship Positions

Viking Sea

Last reported at 2020-Jan-24 00:20 UTC. Time now 2020-Jan-24 01:24 UTC.
Position N 18°08' W 064°34'.

Length 228 m; draft 6.7 m.

Type: Ship. MMSI: 258215000.

Date/timePositionNaut miles runAvg speedWind from/ knotsBaromVisibWave heightAir tempDewpointWater temp
2020-Jan-24 00:20N 18°08' W 064°34'1011.4
2020-Jan-23 23:30N 18°11' W 064°43'15 9.8
2020-Jan-23 22:00N 18°20' W 064°56'0 0.0
2020-Jan-23 16:25N 18°20' W 064°56'0 0.0
2020-Jan-23 15:25N 18°20' W 064°56'0 0.1
2020-Jan-23 11:00N 18°20' W 064°56'8 7.8
2020-Jan-23 10:00N 18°18' W 065°04'61 1.6
2020-Jan-21 20:04N 18°28' W 066°07'0 0.0
2020-Jan-21 12:58N 18°28' W 066°07'0 0.0
2020-Jan-21 11:28N 18°28' W 066°07'0 0.0
2020-Jan-21 10:28N 18°28' W 066°07'0 0.0
2020-Jan-21 07:28N 18°28' W 066°07'0 0.0
2020-Jan-21 06:58N 18°28' W 066°07'17 5.7
2020-Jan-21 03:57N 18°40' W 065°54'612.9
2020-Jan-21 03:30N 18°39' W 065°48'612.3
2020-Jan-21 03:00N 18°38' W 065°42'1912.6
2020-Jan-21 01:30N 18°36' W 065°22'612.1
2020-Jan-21 01:00N 18°35' W 065°16'24 6.1
2020-Jan-20 20:59N 18°20' W 064°55'0 0.0
2020-Jan-20 18:29N 18°20' W 064°55'0 0.0
2020-Jan-20 16:59N 18°20' W 064°55'0 0.0
2020-Jan-20 14:59N 18°20' W 064°55'0 0.0
2020-Jan-20 13:29N 18°20' W 064°55'0 0.0
2020-Jan-20 11:59N 18°20' W 064°55'0 0.0
2020-Jan-20 10:59N 18°20' W 064°55'5 3.1
2020-Jan-20 09:30N 18°16' W 064°54'511.0
2020-Jan-20 09:00N 18°11' W 064°51'  
2020-Jan-14 16:48N 16°55' W 062°34'23 8.9
2020-Jan-14 14:13N 17°16' W 062°44'2 0.7
2020-Jan-14 11:52N 17°16' W 062°46'1 1.5
2020-Jan-14 11:27N 17°16' W 062°46'1 1.7
2020-Jan-14 10:38N 17°17' W 062°47'5 7.6
2020-Jan-14 10:00N 17°19' W 062°52'19 6.9
2020-Jan-14 07:15N 17°31' W 063°07'9 7.1
2020-Jan-14 06:00N 17°39' W 063°11'4 7.0
2020-Jan-14 05:27N 17°42' W 063°14'30 6.6
2020-Jan-14 00:53N 17°57' W 063°41'  

Dump ship's entire track history